KOGD/OGD METAR and TAF weather

Enter ICAO airport designator
Station Type Date Time Source
KOGD METAR 2019/02/23 00:53 UTC NOAA

KOGD 230053Z 33005KT 10SM CLR M04/M13 A2998 RMK AO2 SLP176 T10441133


Station Type Date Time Source
KOGD Decoded METAR 2019/02/23 00:53 UTC NOAA

OGDEN-HINCKLEY AIRPORT, UT, United States (KOGD) 41-12N 112-01W 1353M
Feb 22, 2019 - 07:53 PM EST / 2019.02.23 0053 UTC
Wind: from the NNW (330 degrees) at 6 MPH (5 KT):0
Visibility: 10 mile(s):0
Sky conditions: clear
Temperature: 24.1 F (-4.4 C)
Windchill: 17 F (-8 C):1
Dew Point: 8.1 F (-13.3 C)
Relative Humidity: 49%
Pressure (altimeter): 29.98 in. Hg (1015 hPa)
ob: KOGD 230053Z 33005KT 10SM CLR M04/M13 A2998 RMK AO2 SLP176 T10441133
cycle: 1

Station Type Date Time Source
KOGD TAF 2019/02/22 18:42 UTC NOAA

TAF KOGD 221741Z 2218/2318 30005KT P6SM SKC
FM230300 16005KT P6SM SKC
FM231200 17005KT P6SM BKN100


Example: see airport list